Terminal Aerodrome Forecast
Issued by NWS Sioux Falls, SD

Home | Current Version | Previous Version | Graphics & Text | Print | Product List | Glossary Off
Versions: 1 2 3 4 5 6 7 8 9 10 11 12 13 14 15 16

000
FTUS43 KFSD 221459 AAD
TAFFSD
TAF AMD
KFSD 221459Z 2215/2312 23004KT P6SM BKN012
     FM221630 21009KT P6SM SCT150
     FM230600 21008KT P6SM BKN120=

USA.gov is the U.S. government's official web portal to all federal, state and local government web resources and services.